ADDS METAR Data INFO
IDs: Format: Raw Decoded Include TAF

Data at: 0027 UTC 23 Oct 2017

KOPN 230015Z AUTO 10009KT 10SM BKN013 21/17 A3014 RMK AO2
KOPN 222355Z AUTO 10009G14KT 10SM BKN013 21/17 A3014 RMK AO2
KOPN 222335Z AUTO 12010G16KT 10SM BKN013 22/17 A3014 RMK AO2
KOPN 222315Z AUTO 11008KT 10SM SCT013 22/17 A3014 RMK AO2
KOPN 222255Z AUTO 11009KT 10SM CLR 22/17 A3014 RMK AO2
KOPN 222235Z AUTO 11009KT 10SM CLR 23/17 A3014 RMK AO2
KOPN 222215Z AUTO 11008KT 10SM CLR 23/17 A3014 RMK AO2
KOPN 222155Z AUTO 12010G15KT 10SM SCT038 SCT044 SCT050 24/16 A3014 RMK AO2 LTG DSNT SW
KOPN 222135Z AUTO 12006KT 10SM SCT038 SCT044 BKN050 26/15 A3013 RMK AO2
KOPN 222115Z AUTO 12006KT 10SM SCT039 SCT055 26/15 A3014 RMK AO2
KOPN 222055Z AUTO 13004KT 10SM SCT044 SCT050 26/15 A3014 RMK AO2
KOPN 222035Z AUTO 12007KT 10SM SCT038 BKN044 OVC065 27/15 A3015 RMK AO2
KOPN 222015Z AUTO 12007KT 10SM SCT036 SCT043 BKN065 27/15 A3015 RMK AO2 LTG DSNT SW
KOPN 221955Z AUTO 14007KT 10SM SCT036 28/15 A3015 RMK AO2
KOPN 221935Z AUTO 14009KT 10SM SCT036 SCT045 27/15 A3016 RMK AO2
KOPN 221915Z AUTO 13008KT 10SM SCT036 SCT060 SCT065 27/14 A3016 RMK AO2
KOPN 221855Z AUTO 12007KT 10SM SCT036 BKN060 27/15 A3017 RMK AO2
KOPN 221835Z AUTO 13010KT 10SM SCT037 SCT060 SCT070 27/15 A3018 RMK AO2
KOPN 221815Z AUTO 14008KT 10SM SCT037 SCT048 BKN060 27/15 A3019 RMK AO2
KOPN 221755Z AUTO 14011G15KT 10SM BKN035 BKN040 BKN050 28/15 A3019 RMK AO2
KOPN 221735Z AUTO 15007KT 10SM BKN033 BKN042 BKN050 27/15 A3020 RMK AO2
KOPN 221715Z AUTO 14009KT 10SM SCT029 SCT037 BKN050 27/15 A3021 RMK AO2
KOPN 221655Z AUTO 14007G15KT 10SM SCT026 BKN033 BKN040 26/15 A3022 RMK AO2
KOPN 221635Z AUTO 14012G18KT 10SM BKN024 BKN033 25/16 A3023 RMK AO2
KOPN 221615Z AUTO 15011G16KT 10SM BKN022 BKN027 25/16 A3024 RMK AO2 LTG DSNT SW
KOPN 221555Z AUTO 13010KT 10SM SCT020 SCT044 BKN065 25/16 A3024 RMK AO2
KOPN 221535Z AUTO 13011G17KT 10SM SCT027 SCT044 BKN065 24/16 A3025 RMK AO2
KOPN 221515Z AUTO 12011G15KT 10SM BKN025 BKN033 OVC065 23/16 A3025 RMK AO2
KOPN 221455Z AUTO 12007KT 10SM BKN025 OVC031 22/16 A3026 RMK AO2 LTG DSNT SW
KOPN 221435Z AUTO 12007KT 10SM SCT024 BKN030 OVC060 22/16 A3026 RMK AO2
KOPN 221415Z AUTO 12007KT 10SM SCT024 OVC050 21/16 A3027 RMK AO2
KOPN 221355Z AUTO 12006KT 10SM SCT024 BKN050 21/15 A3027 RMK AO2
KOPN 221335Z AUTO 11007KT 10SM SCT026 SCT050 SCT060 20/15 A3027 RMK AO2
KOPN 221315Z AUTO 11006KT 10SM BKN026 OVC060 18/15 A3027 RMK AO2
KOPN 221255Z AUTO 12006KT 10SM OVC060 17/15 A3026 RMK AO2
KOPN 221235Z AUTO 10006KT 10SM OVC060 17/15 A3026 RMK AO2 LTG DSNT S
KOPN 221215Z AUTO 11006KT 10SM OVC060 17/15 A3025 RMK AO2
KOPN 221155Z AUTO 10005KT 10SM SCT047 OVC060 17/15 A3025 RMK AO2
KOPN 221135Z AUTO 10005KT 10SM OVC060 17/15 A3024 RMK AO2
KOPN 221115Z AUTO 09005KT 10SM OVC060 17/15 A3024 RMK AO2
KOPN 221055Z AUTO 10004KT 10SM OVC060 17/15 A3024 RMK AO2
KOPN 221035Z AUTO 09005KT 10SM OVC050 17/15 A3024 RMK AO2
KOPN 221015Z AUTO 10006KT 10SM OVC050 17/14 A3024 RMK AO2
KOPN 220955Z AUTO 09006KT 10SM OVC050 17/14 A3024 RMK AO2
KOPN 220935Z AUTO 09007KT 10SM BKN050 16/13 A3024 RMK AO2
KOPN 220915Z AUTO 09005KT 10SM BKN050 16/13 A3024 RMK AO2
KOPN 220855Z AUTO 09004KT 10SM SCT050 16/13 A3024 RMK AO2
KOPN 220835Z AUTO 08005KT 10SM CLR 16/13 A3024 RMK AO2
KOPN 220815Z AUTO 07004KT 10SM CLR 15/13 A3024 RMK AO2
KOPN 220755Z AUTO 11004KT 10SM CLR 17/13 A3024 RMK AO2
KOPN 220735Z AUTO 11005KT 10SM CLR 17/13 A3024 RMK AO2
KOPN 220715Z AUTO 10007KT 10SM CLR 17/12 A3024 RMK AO2
KOPN 220655Z AUTO 08006KT 10SM CLR 17/12 A3024 RMK AO2
KOPN 220635Z AUTO 09004KT 10SM CLR 17/11 A3025 RMK AO2
KOPN 220615Z AUTO 11004KT 10SM CLR 17/11 A3026 RMK AO2
KOPN 220555Z AUTO 12004KT 10SM CLR 18/10 A3026 RMK AO2
KOPN 220535Z AUTO 10005KT 10SM CLR 17/10 A3026 RMK AO2
KOPN 220515Z AUTO 09004KT 10SM CLR 18/10 A3027 RMK AO2
KOPN 220455Z AUTO 11006KT 10SM CLR 18/09 A3027 RMK AO2
KOPN 220435Z AUTO 11005KT 10SM CLR 18/08 A3027 RMK AO2
KOPN 220415Z AUTO 11006KT 10SM CLR 18/08 A3028 RMK AO2
KOPN 220355Z AUTO 11007KT 10SM SCT042 19/07 A3028 RMK AO2
KOPN 220335Z AUTO 11008KT 10SM CLR 19/08 A3028 RMK AO2
KOPN 220315Z AUTO 11006KT 10SM CLR 19/08 A3028 RMK AO2
KOPN 220255Z AUTO 11006KT 10SM CLR 19/08 A3028 RMK AO2
KOPN 220235Z AUTO 11006KT 10SM CLR 20/08 A3027 RMK AO2
KOPN 220215Z AUTO 11006KT 10SM CLR 20/09 A3028 RMK AO2
KOPN 220155Z AUTO 11005KT 10SM CLR 20/10 A3027 RMK AO2
KOPN 220135Z AUTO 10006KT 10SM CLR 20/10 A3026 RMK AO2
KOPN 220115Z AUTO 09006KT 10SM CLR 20/12 A3025 RMK AO2
KOPN 220055Z AUTO 09006KT 10SM CLR 20/12 A3026 RMK AO2
KOPN 220030Z AUTO 09005KT 10SM CLR 21/12 A3026 RMK AO2
KOPN 220015Z AUTO 09005KT 10SM CLR 21/12 A3026 RMK AO2
KOPN 212355Z AUTO 09006KT 10SM CLR 21/13 A3026 RMK AO2
KOPN 212335Z AUTO 09005KT 10SM CLR 21/12 A3026 RMK AO2
KOPN 212315Z AUTO 08004KT 10SM CLR 21/12 A3026 RMK AO2
KOPN 212255Z AUTO 08004KT 10SM CLR 22/12 A3025 RMK AO2
KOPN 212235Z AUTO 08005KT 10SM CLR 22/12 A3026 RMK AO2
KOPN 212215Z AUTO 08005KT 10SM CLR 23/11 A3026 RMK AO2
KOPN 212155Z AUTO 10006KT 10SM CLR 24/11 A3025 RMK AO2
KOPN 212135Z AUTO 12005KT 10SM CLR 25/11 A3025 RMK AO2
KOPN 212115Z AUTO 11005KT 10SM CLR 25/11 A3025 RMK AO2
KOPN 212055Z AUTO 11005KT 10SM CLR 24/11 A3025 RMK AO2
KOPN 212035Z AUTO 13006KT 10SM CLR 26/11 A3025 RMK AO2
KOPN 212015Z AUTO 11003KT 10SM CLR 25/11 A3025 RMK AO2
KOPN 211955Z AUTO 11006KT 10SM CLR 25/11 A3025 RMK AO2
KOPN 211935Z AUTO 09003KT 10SM CLR 25/11 A3024 RMK AO2
KOPN 211915Z AUTO 12006KT 10SM CLR 25/11 A3025 RMK AO2
KOPN 211855Z AUTO 12006KT 10SM CLR 25/11 A3026 RMK AO2
KOPN 211835Z AUTO 13004KT 10SM CLR 24/10 A3026 RMK AO2
KOPN 211815Z AUTO 14004KT 10SM CLR 24/11 A3027 RMK AO2
KOPN 211755Z AUTO 08004KT 10SM CLR 25/11 A3027 RMK AO2
KOPN 211735Z AUTO 10005KT 10SM CLR 24/10 A3028 RMK AO2
KOPN 211715Z AUTO 13005KT 10SM CLR 24/10 A3029 RMK AO2
KOPN 211655Z AUTO 10004KT 10SM CLR 23/10 A3030 RMK AO2
KOPN 211635Z AUTO 13006KT 10SM CLR 23/10 A3030 RMK AO2
KOPN 211615Z AUTO 12006KT 10SM CLR 23/10 A3031 RMK AO2
KOPN 211555Z AUTO 11007KT 10SM CLR 22/11 A3030 RMK AO2
KOPN 211535Z AUTO 11005KT 10SM CLR 22/11 A3031 RMK AO2
KOPN 211515Z AUTO 12004KT 10SM CLR 21/12 A3031 RMK AO2
KOPN 211455Z AUTO 12005KT 10SM CLR 21/12 A3031 RMK AO2
KOPN 211435Z AUTO 11007KT 10SM CLR 20/12 A3030 RMK AO2
KOPN 211415Z AUTO 11006KT 10SM CLR 19/12 A3030 RMK AO2
KOPN 211355Z AUTO 10006KT 10SM CLR 18/12 A3030 RMK AO2
KOPN 211335Z AUTO 12005KT 10SM CLR 17/14 A3030 RMK AO2
KOPN 211315Z AUTO 00000KT 10SM CLR 13/12 A3030 RMK AO2
KOPN 211255Z AUTO 00000KT 10SM CLR 13/11 A3029 RMK AO2
KOPN 211235Z AUTO 00000KT 10SM CLR 12/10 A3029 RMK AO2